createdAt,value
2018-03-04T00:00:50.162Z,79.43
2018-03-04T00:03:18.390Z,78.50
2018-03-04T00:05:46.629Z,76.77
2018-03-04T00:08:16.045Z,76.00
2018-03-04T00:10:44.290Z,74.47
2018-03-04T00:13:12.677Z,78.50
2018-03-04T00:15:42.926Z,76.87
2018-03-04T00:18:11.943Z,82.47
2018-03-04T00:20:40.196Z,79.00
2018-03-04T00:23:08.460Z,80.87
2018-03-04T00:25:36.698Z,84.37
2018-03-04T00:28:04.946Z,79.13
2018-03-04T00:30:33.528Z,78.60
2018-03-04T00:33:01.774Z,83.67
2018-03-04T00:35:30.241Z,83.70
2018-03-04T00:37:58.513Z,84.60
2018-03-04T00:40:26.765Z,83.83
2018-03-04T00:42:56.088Z,88.60
2018-03-04T00:45:24.355Z,86.10
2018-03-04T00:47:52.601Z,79.93
2018-03-04T00:50:20.851Z,84.33
2018-03-04T00:52:49.949Z,80.70
2018-03-04T00:55:18.190Z,76.27
2018-03-04T00:57:46.461Z,86.73
2018-03-04T01:00:14.709Z,84.77
2018-03-04T01:02:43.049Z,85.90
2018-03-04T01:05:12.326Z,85.83
2018-03-04T01:07:40.603Z,89.80
2018-03-04T01:10:08.852Z,84.33
2018-03-04T01:12:37.094Z,86.00
2018-03-04T01:15:05.840Z,90.17
2018-03-04T01:17:34.084Z,90.60
2018-03-04T01:20:02.329Z,77.17
2018-03-04T01:22:31.364Z,89.23
2018-03-04T01:24:59.604Z,83.57
2018-03-04T01:27:27.853Z,82.70
2018-03-04T01:29:56.885Z,78.40
2018-03-04T01:32:25.621Z,85.70
2018-03-04T01:34:53.862Z,87.77
2018-03-04T01:37:22.245Z,79.70
2018-03-04T01:39:50.752Z,89.67
2018-03-04T01:42:18.980Z,83.73
2018-03-04T01:44:47.246Z,85.47
2018-03-04T01:47:15.495Z,78.10
2018-03-04T01:49:43.737Z,85.53
2018-03-04T01:52:12.006Z,83.00
2018-03-04T01:54:40.249Z,86.33
2018-03-04T01:57:09.261Z,89.23
2018-03-04T01:59:37.663Z,89.37
2018-03-04T02:02:05.906Z,84.80
2018-03-04T02:04:34.158Z,93.17
2018-03-04T02:07:02.429Z,86.97
2018-03-04T02:09:30.673Z,96.53
2018-03-04T02:11:58.921Z,81.70
2018-03-04T02:14:27.300Z,87.30
2018-03-04T02:16:55.540Z,80.37
2018-03-04T02:19:23.793Z,76.83
2018-03-04T02:21:52.469Z,88.20
2018-03-04T02:24:20.724Z,84.33
2018-03-04T02:26:48.969Z,83.77
2018-03-04T02:29:17.232Z,80.20
2018-03-04T02:31:45.473Z,82.77
2018-03-04T02:34:14.126Z,81.30
2018-03-04T02:36:42.389Z,78.27
2018-03-04T02:39:11.401Z,79.97
2018-03-04T02:41:39.668Z,84.70
2018-03-04T02:44:08.185Z,86.37
2018-03-04T02:46:36.426Z,84.33
2018-03-04T02:49:04.673Z,85.80
2018-03-04T02:51:33.709Z,91.77
2018-03-04T02:54:01.965Z,86.07
2018-03-04T02:56:30.970Z,78.67
2018-03-04T02:58:59.374Z,79.70
2018-03-04T03:01:27.706Z,81.00
2018-03-04T03:03:55.945Z,87.87
2018-03-04T03:06:24.518Z,88.87
2018-03-04T03:08:52.762Z,80.47
2018-03-04T03:11:21.008Z,88.07
2018-03-04T03:13:50.046Z,91.50
2018-03-04T03:16:18.295Z,87.13
2018-03-04T03:18:47.302Z,92.77
2018-03-04T03:21:16.329Z,85.97
2018-03-04T03:23:44.570Z,86.27
2018-03-04T03:26:12.825Z,86.63
2018-03-04T03:28:41.465Z,86.90
2018-03-04T03:31:09.711Z,87.20
2018-03-04T03:33:37.953Z,92.43
2018-03-04T03:36:07.193Z,94.77
2018-03-04T03:38:35.441Z,88.23
2018-03-04T03:41:03.689Z,79.23
2018-03-04T03:43:31.958Z,87.37
2018-03-04T03:46:00.206Z,89.40
2018-03-04T03:48:28.445Z,86.63
2018-03-04T03:50:57.797Z,86.87
2018-03-04T03:53:26.073Z,87.00
2018-03-04T03:55:54.321Z,90.07
2018-03-04T03:58:22.588Z,88.50
2018-03-04T04:00:51.597Z,90.23
2018-03-04T04:03:20.844Z,88.10
2018-03-04T04:05:49.205Z,88.53
2018-03-04T04:08:17.442Z,81.63
2018-03-04T04:10:45.681Z,89.80
2018-03-04T04:13:14.352Z,85.00
2018-03-04T04:15:42.598Z,88.77
2018-03-04T04:18:10.849Z,84.77
2018-03-04T04:20:41.116Z,82.80
2018-03-04T04:23:09.451Z,86.70
2018-03-04T04:25:38.608Z,86.17
2018-03-04T04:28:07.602Z,87.37
2018-03-04T04:30:35.843Z,92.70
2018-03-04T04:33:04.086Z,91.30
2018-03-04T04:35:32.414Z,87.90
2018-03-04T04:38:00.961Z,82.40
2018-03-04T04:40:29.965Z,86.30
2018-03-04T04:42:58.237Z,87.57
2018-03-04T04:45:26.469Z,88.20
2018-03-04T04:47:54.721Z,87.20
2018-03-04T04:50:22.989Z,82.47
2018-03-04T04:52:51.233Z,84.40
2018-03-04T04:55:20.252Z,91.13
2018-03-04T04:57:48.954Z,83.50
2018-03-04T05:00:17.198Z,86.53
2018-03-04T05:02:45.449Z,84.33
2018-03-04T05:05:13.718Z,91.43
2018-03-04T05:07:41.966Z,83.57
2018-03-04T05:10:10.210Z,86.53
2018-03-04T05:12:38.473Z,89.67
2018-03-04T05:15:06.714Z,92.67
2018-03-04T05:17:34.965Z,89.07
2018-03-04T05:20:03.721Z,85.07
2018-03-04T05:22:31.969Z,95.50
2018-03-04T05:25:00.221Z,92.03
2018-03-04T05:27:28.483Z,85.93
2018-03-04T05:29:56.730Z,84.27
2018-03-04T05:32:24.973Z,88.03
2018-03-04T05:34:53.240Z,83.87
2018-03-04T05:37:21.489Z,89.13
2018-03-04T05:39:50.122Z,83.20
2018-03-04T05:42:19.437Z,89.50
2018-03-04T05:44:47.687Z,81.40
2018-03-04T05:47:15.929Z,86.00
2018-03-04T05:49:44.279Z,82.67
2018-03-04T05:52:12.527Z,81.40
2018-03-04T05:54:40.771Z,86.00
2018-03-04T05:57:09.033Z,93.10
2018-03-04T05:59:37.282Z,87.83
2018-03-04T06:02:05.526Z,93.20
2018-03-04T06:04:34.005Z,91.63
2018-03-04T06:07:02.246Z,84.10
2018-03-04T06:09:30.489Z,93.23
2018-03-04T06:11:58.753Z,84.17
2018-03-04T06:14:27.770Z,87.70
2018-03-04T06:16:56.016Z,82.40
2018-03-04T06:19:24.281Z,88.80
2018-03-04T06:21:52.531Z,83.97
2018-03-04T06:24:20.773Z,85.83
2018-03-04T06:26:49.373Z,86.40
2018-03-04T06:29:17.617Z,81.10
2018-03-04T06:31:45.865Z,80.53
2018-03-04T06:34:14.897Z,93.97
2018-03-04T06:36:43.141Z,82.23
2018-03-04T06:39:11.397Z,79.40
2018-03-04T06:41:39.942Z,91.30
2018-03-04T06:44:08.188Z,80.20
2018-03-04T06:46:36.434Z,83.50
2018-03-04T06:49:05.093Z,83.63
2018-03-04T06:51:33.342Z,83.10
2018-03-04T06:54:01.590Z,84.30
2018-03-04T06:56:29.856Z,87.87
2018-03-04T06:58:58.105Z,83.57
2018-03-04T07:01:26.364Z,92.00
2018-03-04T07:03:54.741Z,82.47
2018-03-04T07:06:23.093Z,84.53
2018-03-04T07:08:52.107Z,81.77
2018-03-04T07:11:20.813Z,76.80
2018-03-04T07:13:49.052Z,85.87
2018-03-04T07:16:17.297Z,89.63
2018-03-04T07:18:45.565Z,78.20
2018-03-04T07:21:13.814Z,78.43
2018-03-04T07:23:42.057Z,81.60
2018-03-04T07:26:11.094Z,82.77
2018-03-04T07:28:39.337Z,76.00
2018-03-04T07:31:07.972Z,88.63
2018-03-04T07:33:36.603Z,83.13
2018-03-04T07:36:04.788Z,81.27
2018-03-04T07:38:33.037Z,77.63
2018-03-04T07:41:01.309Z,86.17
2018-03-04T07:43:30.008Z,86.53
2018-03-04T07:45:59.021Z,91.80
2018-03-04T07:48:27.284Z,93.27
2018-03-04T07:50:55.526Z,81.47
2018-03-04T07:53:23.774Z,77.37
2018-03-04T07:55:52.229Z,84.23
2018-03-04T07:58:20.469Z,87.53
2018-03-04T08:00:49.136Z,94.37
2018-03-04T08:03:17.388Z,80.57
2018-03-04T08:05:45.632Z,86.27
2018-03-04T08:08:13.874Z,88.87
2018-03-04T08:10:42.173Z,89.37
2018-03-04T08:13:11.244Z,92.60
2018-03-04T08:15:39.501Z,85.60
2018-03-04T08:18:08.245Z,86.47
2018-03-04T08:20:37.253Z,83.87
2018-03-04T08:23:05.573Z,90.63
2018-03-04T08:25:35.657Z,85.53
2018-03-04T08:28:15.758Z,88.73
2018-03-04T08:30:44.025Z,83.10
2018-03-04T08:33:12.273Z,86.43
2018-03-04T08:35:40.517Z,95.80
2018-03-04T08:38:08.848Z,87.17
2018-03-04T08:40:37.170Z,89.40
2018-03-04T08:43:06.173Z,93.90
2018-03-04T08:45:35.797Z,97.83
2018-03-04T08:48:04.041Z,88.13
2018-03-04T08:50:32.293Z,92.07
2018-03-04T08:53:00.565Z,95.40
2018-03-04T08:55:28.812Z,86.70
2018-03-04T08:57:57.050Z,84.03
2018-03-04T09:00:26.402Z,85.47
2018-03-04T09:02:54.649Z,81.53
2018-03-04T09:05:22.901Z,87.63
2018-03-04T09:07:51.173Z,87.53
2018-03-04T09:10:19.420Z,91.20
2018-03-04T09:12:47.661Z,93.73
2018-03-04T09:15:16.701Z,87.80
2018-03-04T09:17:44.953Z,93.80
2018-03-04T09:20:13.204Z,90.83
2018-03-04T09:22:41.809Z,92.23
2018-03-04T09:25:10.146Z,87.40
2018-03-04T09:27:39.149Z,92.50
2018-03-04T09:30:08.182Z,88.27
2018-03-04T09:32:36.571Z,92.13
2018-03-04T09:35:04.794Z,89.00
2018-03-04T09:37:33.059Z,97.23
2018-03-04T09:40:01.302Z,92.87
2018-03-04T09:42:29.541Z,83.33
2018-03-04T09:44:58.145Z,84.40
2018-03-04T09:47:26.634Z,93.63
2018-03-04T09:49:54.872Z,89.60
2018-03-04T09:52:23.901Z,81.37
2018-03-04T09:54:52.145Z,91.57
2018-03-04T09:57:20.396Z,82.10
2018-03-04T09:59:48.669Z,88.53
2018-03-04T10:02:16.920Z,97.37
2018-03-04T10:04:45.150Z,93.93
2018-03-04T10:07:13.473Z,94.00
2018-03-04T10:09:41.716Z,84.83
2018-03-04T10:12:09.960Z,89.00
2018-03-04T10:14:38.991Z,83.50
2018-03-04T10:17:07.237Z,94.97
2018-03-04T10:19:35.481Z,90.80
2018-03-04T10:22:03.765Z,87.43
2018-03-04T10:24:32.133Z,89.97
2018-03-04T10:27:00.386Z,89.40
2018-03-04T10:29:28.970Z,99.87
2018-03-04T10:31:57.243Z,89.03
2018-03-04T10:34:25.497Z,93.93
2018-03-04T10:36:53.778Z,103.90
2018-03-04T10:39:22.029Z,98.90
2018-03-04T10:41:50.274Z,86.63
2018-03-04T10:44:18.559Z,92.77
2018-03-04T10:46:46.809Z,93.33
2018-03-04T10:49:15.349Z,86.70
2018-03-04T10:51:44.746Z,93.80
2018-03-04T10:54:13.793Z,94.20
2018-03-04T10:56:42.044Z,90.77
2018-03-04T10:59:10.872Z,97.33
2018-03-04T11:01:44.089Z,92.03
2018-03-04T11:04:12.372Z,99.53
2018-03-04T11:06:40.654Z,108.70
2018-03-04T11:09:08.907Z,97.57
2018-03-04T11:11:37.561Z,99.40
2018-03-04T11:14:05.814Z,104.20
2018-03-04T11:16:34.075Z,91.43
2018-03-04T11:19:02.346Z,105.00
2018-03-04T11:21:31.370Z,94.70
2018-03-04T11:23:59.685Z,93.23
2018-03-04T11:26:27.968Z,103.97
2018-03-04T11:28:56.226Z,88.10
2018-03-04T11:31:24.522Z,112.80
2018-03-04T11:33:52.973Z,86.10
2018-03-04T11:36:21.233Z,89.13
2018-03-04T11:38:49.486Z,86.10
2018-03-04T11:41:17.762Z,97.20
2018-03-04T11:43:46.774Z,84.57
2018-03-04T11:46:15.099Z,88.30
2018-03-04T11:48:43.377Z,105.67
2018-03-04T11:51:12.173Z,81.33
2018-03-04T11:53:40.417Z,89.97
2018-03-04T11:56:09.001Z,83.17
2018-03-04T11:58:37.334Z,78.77
2018-03-04T12:01:06.349Z,86.13
2018-03-04T12:03:34.625Z,74.27
2018-03-04T12:06:02.878Z,69.50
2018-03-04T12:08:31.139Z,85.97
2018-03-04T12:10:59.409Z,73.23
2018-03-04T12:13:27.880Z,81.90
2018-03-04T12:15:56.155Z,90.17
2018-03-04T12:18:24.722Z,98.40
2018-03-04T12:20:52.973Z,76.80
2018-03-04T12:23:21.225Z,70.43
2018-03-04T12:25:49.519Z,91.87
2018-03-04T12:28:18.522Z,78.37
2018-03-04T12:30:46.776Z,78.40
2018-03-04T12:33:15.254Z,72.53
2018-03-04T12:35:44.276Z,85.20
2018-03-04T12:38:12.527Z,130.13
2018-03-04T12:40:40.849Z,88.80
2018-03-04T12:43:09.100Z,85.67
2018-03-04T12:45:37.359Z,78.33
2018-03-04T12:48:05.642Z,104.00
2018-03-04T12:50:34.185Z,62.10
2018-03-04T12:53:02.749Z,81.37
2018-03-04T12:55:31.040Z,76.60
2018-03-04T12:57:59.277Z,83.40
2018-03-04T13:00:27.716Z,74.87
2018-03-04T13:02:58.114Z,83.27
2018-03-04T13:05:26.361Z,92.97
2018-03-04T13:07:54.728Z,166.33
2018-03-04T13:10:23.138Z,67.67
2018-03-04T13:12:52.373Z,70.03
2018-03-04T13:15:20.745Z,64.27
2018-03-04T13:17:49.155Z,70.00
2018-03-04T13:20:18.429Z,67.07
2018-03-04T13:22:47.732Z,69.20
2018-03-04T13:25:16.565Z,124.13
2018-03-04T13:27:44.823Z,92.37
2018-03-04T13:30:13.855Z,62.80
2018-03-04T13:32:43.117Z,59.50
2018-03-04T13:35:12.137Z,58.00
2018-03-04T13:37:40.769Z,57.13
2018-03-04T13:40:09.181Z,78.90
2018-03-04T13:42:38.192Z,61.10
2018-03-04T13:45:08.057Z,79.40
2018-03-04T13:47:36.817Z,62.67
2018-03-04T13:50:05.129Z,64.87
2018-03-04T13:52:34.425Z,69.70
2018-03-04T13:55:02.952Z,84.33
2018-03-04T13:57:33.333Z,63.03
2018-03-04T14:00:01.714Z,73.40
2018-03-04T14:02:30.122Z,55.80
2018-03-04T14:04:59.141Z,68.13
2018-03-04T14:07:27.470Z,93.17
2018-03-04T14:09:56.601Z,70.50
2018-03-04T14:12:27.182Z,62.70
2018-03-04T14:14:55.413Z,55.60
2018-03-04T14:17:24.385Z,78.30
2018-03-04T14:19:54.582Z,72.60
2018-03-04T14:22:22.964Z,68.97
2018-03-04T14:24:51.361Z,55.40
2018-03-04T14:27:20.380Z,66.17
2018-03-04T14:29:49.638Z,66.17
2018-03-04T14:32:18.517Z,59.20
2018-03-04T14:34:47.933Z,92.50
2018-03-04T14:37:16.317Z,60.43
2018-03-04T14:39:45.065Z,65.63
2018-03-04T14:42:13.377Z,71.70
2018-03-04T14:44:41.759Z,54.40
2018-03-04T14:47:10.201Z,66.40
2018-03-04T14:49:38.510Z,75.07
2018-03-04T14:52:06.895Z,63.63
2018-03-04T14:54:35.657Z,95.13
2018-03-04T14:57:03.945Z,79.67
2018-03-04T14:59:32.338Z,73.60
2018-03-04T15:02:00.738Z,89.80
2018-03-04T15:04:29.762Z,63.73
2018-03-04T15:06:59.013Z,66.77
2018-03-04T15:09:27.419Z,90.70
2018-03-04T15:11:56.473Z,70.03
2018-03-04T15:14:24.765Z,72.67
2018-03-04T15:16:53.521Z,79.93
2018-03-04T15:19:21.816Z,74.70
2018-03-04T15:21:50.056Z,111.13
2018-03-04T15:24:18.605Z,68.80
2018-03-04T15:26:47.624Z,119.60
2018-03-04T15:29:15.958Z,88.33
2018-03-04T15:31:44.361Z,82.60
2018-03-04T15:34:13.376Z,67.97
2018-03-04T15:36:41.669Z,70.63
2018-03-04T15:39:10.283Z,97.00
2018-03-04T15:41:38.518Z,80.37
2018-03-04T15:44:06.765Z,80.70
2018-03-04T15:46:35.258Z,69.17
2018-03-04T15:49:04.265Z,80.67
2018-03-04T15:51:32.601Z,70.40
2018-03-04T15:54:00.878Z,72.90
2018-03-04T15:56:29.381Z,69.53
2018-03-04T15:58:59.589Z,64.57
2018-03-04T16:01:28.038Z,86.37
2018-03-04T16:03:56.338Z,63.30
2018-03-04T16:06:24.582Z,62.03
2018-03-04T16:08:52.865Z,71.93
2018-03-04T16:11:21.479Z,66.17
2018-03-04T16:13:49.730Z,72.53
2018-03-04T16:16:18.007Z,59.33
2018-03-04T16:18:46.305Z,58.47
2018-03-04T16:21:14.685Z,72.00
2018-03-04T16:23:43.136Z,67.93
2018-03-04T16:26:11.450Z,62.43
2018-03-04T16:28:40.746Z,59.30
2018-03-04T16:31:09.193Z,65.80
2018-03-04T16:33:37.502Z,65.83
2018-03-04T16:36:05.768Z,72.20
2018-03-04T16:38:34.285Z,76.20
2018-03-04T16:41:03.305Z,68.10
2018-03-04T16:43:31.556Z,64.93
2018-03-04T16:46:00.357Z,54.73
2018-03-04T16:48:30.550Z,56.40
2018-03-04T16:50:58.921Z,58.47
2018-03-04T16:53:27.395Z,77.13
2018-03-04T16:55:56.357Z,57.63
2018-03-04T16:58:24.737Z,60.37
2018-03-04T17:00:53.076Z,74.03
2018-03-04T17:03:22.097Z,58.73
2018-03-04T17:05:50.429Z,60.70
2018-03-04T17:08:18.873Z,62.53
2018-03-04T17:10:47.129Z,62.33
2018-03-04T17:13:15.561Z,62.57
2018-03-04T17:15:44.754Z,53.23
2018-03-04T17:18:13.033Z,52.63
2018-03-04T17:20:41.321Z,57.30
2018-03-04T17:23:09.730Z,54.90
2018-03-04T17:25:40.033Z,59.43
2018-03-04T17:28:09.411Z,49.53
2018-03-04T17:30:39.574Z,59.93
2018-03-04T17:33:08.734Z,51.03
2018-03-04T17:35:37.140Z,58.13
2018-03-04T17:38:05.521Z,54.50
2018-03-04T17:40:34.542Z,59.73
2018-03-04T17:43:02.874Z,52.67
2018-03-04T17:45:31.280Z,47.17
2018-03-04T17:48:00.300Z,53.13
2018-03-04T17:50:28.662Z,66.07
2018-03-04T17:52:57.759Z,60.30
2018-03-04T17:55:26.001Z,64.13
2018-03-04T17:57:54.369Z,53.00
2018-03-04T18:00:23.393Z,61.43
2018-03-04T18:02:52.048Z,49.80
2018-03-04T18:05:20.302Z,50.40
2018-03-04T18:07:48.848Z,48.27
2018-03-04T18:10:17.881Z,56.70
2018-03-04T18:12:46.493Z,54.60
2018-03-04T18:15:14.949Z,52.00
2018-03-04T18:17:43.553Z,59.50
2018-03-04T18:20:12.941Z,52.90
2018-03-04T18:22:43.412Z,60.63
2018-03-04T18:25:12.433Z,51.70
2018-03-04T18:27:41.314Z,51.50
2018-03-04T18:30:09.783Z,50.23
2018-03-04T18:32:38.805Z,53.17
2018-03-04T18:35:07.162Z,52.10
2018-03-04T18:37:36.263Z,52.27
2018-03-04T18:40:04.508Z,74.93
2018-03-04T18:42:32.878Z,55.93
2018-03-04T18:45:01.284Z,49.93
2018-03-04T18:47:30.327Z,51.30
2018-03-04T18:49:58.582Z,51.73
2018-03-04T18:52:27.036Z,48.00
2018-03-04T18:54:56.060Z,48.30
2018-03-04T18:57:24.389Z,51.40
2018-03-04T18:59:53.162Z,49.47
2018-03-04T19:02:21.443Z,49.83
2018-03-04T19:04:49.717Z,45.00
2018-03-04T19:07:17.973Z,44.90
2018-03-04T19:09:46.234Z,52.23
2018-03-04T19:12:14.665Z,48.63
2018-03-04T19:14:43.061Z,48.77
2018-03-04T19:17:12.086Z,45.37
2018-03-04T19:19:40.333Z,53.50
2018-03-04T19:22:08.865Z,50.77
2018-03-04T19:24:37.172Z,51.60
2018-03-04T19:27:05.416Z,50.27
2018-03-04T19:29:34.874Z,46.87
2018-03-04T19:32:05.081Z,52.57
2018-03-04T19:34:33.445Z,47.60
2018-03-04T19:37:01.853Z,52.50
2018-03-04T19:39:30.890Z,46.17
2018-03-04T19:41:59.205Z,46.50
2018-03-04T19:44:27.961Z,60.07
2018-03-04T19:46:56.217Z,48.03
2018-03-04T19:49:24.768Z,42.30
2018-03-04T19:51:53.053Z,58.73
2018-03-04T19:54:22.074Z,50.00
2018-03-04T19:56:50.491Z,49.03
2018-03-04T19:59:18.805Z,52.50
2018-03-04T20:01:47.829Z,43.17
2018-03-04T20:04:16.156Z,50.40
2018-03-04T20:06:44.775Z,46.87
2018-03-04T20:09:13.216Z,52.77
2018-03-04T20:11:41.597Z,55.97
2018-03-04T20:14:09.997Z,46.47
2018-03-04T20:16:39.013Z,45.50
2018-03-04T20:19:07.341Z,50.37
2018-03-04T20:21:35.750Z,54.30
2018-03-04T20:24:04.765Z,43.47
2018-03-04T20:26:33.337Z,52.47
2018-03-04T20:29:01.866Z,47.00
2018-03-04T20:31:30.675Z,47.73
2018-03-04T20:34:00.085Z,47.53
2018-03-04T20:36:28.391Z,49.93
2018-03-04T20:38:56.642Z,48.20
2018-03-04T20:41:24.912Z,43.97
2018-03-04T20:43:53.190Z,45.50
2018-03-04T20:46:22.954Z,45.87
2018-03-04T20:48:51.476Z,47.37
2018-03-04T20:51:19.789Z,49.37
2018-03-04T20:53:48.041Z,43.97
2018-03-04T20:56:16.289Z,44.87
2018-03-04T20:58:44.561Z,46.33
2018-03-04T21:01:12.818Z,43.73
2018-03-04T21:03:41.249Z,43.80
2018-03-04T21:06:09.681Z,46.70
2018-03-04T21:08:37.926Z,49.83
2018-03-04T21:11:06.181Z,46.20
2018-03-04T21:13:34.533Z,44.43
2018-03-04T21:16:02.776Z,40.57
2018-03-04T21:18:31.081Z,45.53
2018-03-04T21:20:59.293Z,46.00
2018-03-04T21:23:27.532Z,48.10
2018-03-04T21:25:55.780Z,44.00
2018-03-04T21:28:25.213Z,46.57
2018-03-04T21:30:53.457Z,50.77
2018-03-04T21:33:21.834Z,44.27
2018-03-04T21:35:51.169Z,42.10
2018-03-04T21:38:19.414Z,43.33
2018-03-04T21:40:47.854Z,41.13
2018-03-04T21:43:16.126Z,47.40
2018-03-04T21:45:44.387Z,50.17
2018-03-04T21:48:12.614Z,38.27
2018-03-04T21:50:40.885Z,48.87
2018-03-04T21:53:09.141Z,42.40
2018-03-04T21:55:37.384Z,45.80
2018-03-04T21:58:05.969Z,45.33
2018-03-04T22:00:34.213Z,40.87
2018-03-04T22:03:02.453Z,39.20
2018-03-04T22:05:30.721Z,48.77
2018-03-04T22:08:00.357Z,43.27
2018-03-04T22:10:29.368Z,41.03
2018-03-04T22:12:58.397Z,40.57
2018-03-04T22:15:26.701Z,44.20
2018-03-04T22:17:54.953Z,43.67
2018-03-04T22:20:23.538Z,37.40
2018-03-04T22:22:51.781Z,40.13
2018-03-04T22:25:20.024Z,36.97
2018-03-04T22:27:49.062Z,46.13
2018-03-04T22:30:17.305Z,45.60
2018-03-04T22:32:46.319Z,43.43
2018-03-04T22:35:15.346Z,38.53
2018-03-04T22:37:43.584Z,37.70
2018-03-04T22:40:11.832Z,41.10
2018-03-04T22:42:40.521Z,39.40
2018-03-04T22:45:08.771Z,46.70
2018-03-04T22:47:37.020Z,45.23
2018-03-04T22:50:06.233Z,41.60
2018-03-04T22:52:34.475Z,50.73
2018-03-04T22:55:02.717Z,42.73
2018-03-04T22:57:30.989Z,44.17
2018-03-04T22:59:59.245Z,47.67
2018-03-04T23:02:27.488Z,46.43
2018-03-04T23:04:55.805Z,44.27
2018-03-04T23:07:24.049Z,44.53
2018-03-04T23:09:52.915Z,43.13
2018-03-04T23:12:22.074Z,41.30
2018-03-04T23:14:50.300Z,46.47
2018-03-04T23:17:19.306Z,42.97
2018-03-04T23:19:47.581Z,38.87
2018-03-04T23:22:15.829Z,48.53
2018-03-04T23:24:44.073Z,44.47
2018-03-04T23:27:12.574Z,38.13
2018-03-04T23:29:40.817Z,42.63
2018-03-04T23:32:09.064Z,38.77
2018-03-04T23:34:37.334Z,39.90
2018-03-04T23:37:06.342Z,39.10
2018-03-04T23:39:34.698Z,38.47
2018-03-04T23:42:03.733Z,43.57
2018-03-04T23:44:31.989Z,40.70
2018-03-04T23:47:00.238Z,45.13
2018-03-04T23:49:28.880Z,46.40
2018-03-04T23:51:57.114Z,41.77
2018-03-04T23:54:25.381Z,44.10
2018-03-04T23:56:54.390Z,36.37
2018-03-04T23:59:22.632Z,42.73
